Time;durP1;ratioP1;P1;durP2;ratioP2;P2;SDS_P1;SDS_P2;PMS_P1;PMS_P2;Temp;Humidity;BMP_temperature;BMP_pressure;BME280_temperature;BME280_humidity;BME280_pressure;Samples;Min_cycle;Max_cycle;Signal;HPM_P1;HPM_P2
2023/05/12 07:01:20;;;;;;;4.47;1.53;;;13.00;99.90;15.60;101267.00;;;;6278482;22;20202;-61
2023/05/12 07:04:04;;;;;;;1.33;1.23;;;13.20;99.90;15.30;101263.00;;;;6226045;22;20249;-60
2023/05/12 07:07:15;;;;;;;2.43;1.70;;;13.10;99.90;15.80;101267.00;;;;6251489;22;20146;-61
2023/05/12 07:09:55;;;;;;;4.77;4.30;;;13.10;99.90;15.10;101262.00;;;;6277773;22;20158;-61
2023/05/12 07:13:02;;;;;;;2.80;2.60;;;13.10;99.90;15.00;101266.00;;;;6252500;22;20154;-61
2023/05/12 07:16:04;;;;;;;0.53;0.53;;;13.10;99.90;15.10;101264.00;;;;6224787;22;20594;-61
2023/05/12 07:18:50;;;;;;;1.10;1.10;;;13.10;99.90;15.10;101227.00;;;;6278296;22;20662;-61
2023/05/12 07:21:54;;;;;;;1.73;1.33;;;13.20;99.90;15.90;101268.00;;;;6278751;22;20564;-61
2023/05/12 07:24:42;;;;;;;4.50;2.93;;;13.20;99.90;14.70;101258.00;;;;6251067;22;20650;-61
2023/05/12 07:27:53;;;;;;;0.87;0.87;;;13.00;99.90;15.30;101261.00;;;;6250973;22;20140;-61
2023/05/12 07:30:26;;;;;;;1.53;1.43;;;13.00;99.90;15.40;101247.00;;;;6224956;22;20200;-61
2023/05/12 07:33:07;;;;;;;2.03;1.93;;;13.10;99.90;14.90;101272.00;;;;6278383;22;20641;-61
2023/05/12 07:36:08;;;;;;;1.00;1.00;;;13.00;99.90;15.40;101273.00;;;;6278154;22;20143;-60
2023/05/12 07:38:54;;;;;;;0.50;0.50;;;13.10;99.90;15.00;101273.00;;;;6278126;22;20473;-61
2023/05/12 07:41:42;;;;;;;4.57;3.27;;;13.00;99.90;15.20;101274.00;;;;6251166;22;20190;-61
2023/05/12 07:44:40;;;;;;;2.73;2.00;;;13.20;99.90;14.80;101281.00;;;;6277618;22;20193;-61
2023/05/12 07:47:42;;;;;;;1.43;1.13;;;13.10;99.90;15.00;101274.00;;;;6251104;22;20610;-61
2023/05/12 07:50:30;;;;;;;2.67;2.33;;;13.10;99.90;15.00;101285.00;;;;6250798;22;20147;-61
2023/05/12 07:53:21;;;;;;;2.43;2.27;;;13.10;99.90;15.50;101256.00;;;;6249621;22;20231;-61
2023/05/12 07:56:15;;;;;;;6.53;3.83;;;13.20;99.90;14.90;101284.00;;;;6251214;22;20144;-60
2023/05/12 08:02:04;;;;;;;2.07;1.27;;;13.10;99.90;14.90;101259.00;;;;6277548;22;20192;-60
2023/05/12 08:04:55;;;;;;;4.17;3.53;;;13.20;99.90;15.00;101289.00;;;;6250479;22;20699;-60
2023/05/12 08:07:21;;;;;;;2.67;1.93;;;13.20;99.90;15.30;101283.00;;;;6225273;22;20224;-60
2023/05/12 08:09:49;;;;;;;5.07;3.83;;;13.20;99.90;15.10;101277.00;;;;6276642;22;20200;-60
2023/05/12 08:12:50;;;;;;;5.60;3.07;;;13.30;99.90;14.80;101299.00;;;;6251248;22;20464;-60
2023/05/12 08:15:49;;;;;;;5.97;1.13;;;13.30;99.90;15.50;101294.00;;;;6276878;22;20173;-60
2023/05/12 08:18:53;;;;;;;5.03;3.17;;;13.50;99.90;15.20;101295.00;;;;6277306;22;20147;-60
2023/05/12 08:21:52;;;;;;;6.27;3.50;;;13.50;99.90;15.50;101290.00;;;;6277802;22;20207;-60
2023/05/12 08:24:43;;;;;;;10.53;5.13;;;13.60;99.90;15.30;101292.00;;;;6256046;22;20191;-60
2023/05/12 08:27:28;;;;;;;4.13;3.53;;;13.70;99.90;15.70;101280.00;;;;6225477;22;20157;-60
2023/05/12 08:30:14;;;;;;;7.50;3.20;;;13.80;99.90;16.00;101284.00;;;;6225412;22;20161;-60
2023/05/12 08:32:58;;;;;;;2.10;1.67;;;13.90;99.90;16.20;101284.00;;;;6277361;22;20594;-60
2023/05/12 08:35:44;;;;;;;3.17;2.87;;;14.00;99.90;16.20;101279.00;;;;6252167;22;20154;-60
2023/05/12 08:38:31;;;;;;;4.10;3.10;;;14.10;99.90;15.70;101262.00;;;;6250485;22;20159;-60
2023/05/12 08:41:33;;;;;;;2.97;2.67;;;14.10;99.90;16.40;101258.00;;;;6249742;22;20600;-60
2023/05/12 08:44:50;;;;;;;4.60;4.30;;;14.20;99.90;15.90;101284.00;;;;6277138;22;20274;-60
2023/05/12 08:47:42;;;;;;;5.23;3.93;;;14.20;99.90;16.00;101288.00;;;;6232664;22;20160;-60
2023/05/12 08:50:25;;;;;;;3.03;2.73;;;14.20;99.90;16.10;101290.00;;;;6225420;22;20161;-60
2023/05/12 08:53:04;;;;;;;8.60;5.53;;;14.20;99.90;15.60;101287.00;;;;6250765;22;20155;-60
2023/05/12 08:56:18;;;;;;;1.80;1.70;;;14.20;99.90;16.60;101302.00;;;;6248513;22;20163;-60
2023/05/12 08:59:08;;;;;;;6.93;5.50;;;14.30;99.90;16.30;101301.00;;;;6249185;22;20155;-60
2023/05/12 09:02:19;;;;;;;17.37;7.87;;;14.60;99.90;16.70;101301.00;;;;6247741;22;20154;-60
2023/05/12 09:04:55;;;;;;;6.77;5.20;;;14.60;99.90;16.70;101300.00;;;;6227251;22;20611;-60
2023/05/12 09:07:46;;;;;;;3.17;2.70;;;14.90;99.90;17.10;101292.00;;;;6249170;22;20150;-60
2023/05/12 09:10:46;;;;;;;9.93;6.73;;;15.30;99.90;16.50;101291.00;;;;6223495;22;20180;-60
2023/05/12 09:13:55;;;;;;;3.60;3.30;;;15.30;99.90;17.30;101288.00;;;;6276581;22;20178;-60
2023/05/12 09:16:48;;;;;;;18.60;13.27;;;15.70;99.90;16.50;101289.00;;;;6271565;22;20499;-60
2023/05/12 09:19:28;;;;;;;10.63;7.90;;;15.50;99.90;17.60;101275.00;;;;6249486;22;20145;-60
2023/05/12 09:22:13;;;;;;;7.50;2.67;;;15.80;99.90;18.00;101287.00;;;;6223977;22;20178;-60
2023/05/12 09:25:18;;;;;;;2.90;2.17;;;15.90;99.90;18.40;101276.00;;;;6276694;22;20143;-60
2023/05/12 09:28:16;;;;;;;14.03;10.17;;;16.20;99.90;16.40;101281.00;;;;6249806;22;20147;-60
2023/05/12 09:31:21;;;;;;;10.20;7.20;;;15.70;99.90;17.60;101279.00;;;;6276757;22;20471;-60
2023/05/12 09:34:16;;;;;;;8.83;5.70;;;15.70;99.90;17.80;101286.00;;;;6249749;22;20289;-62
2023/05/12 09:37:06;;;;;;;5.37;3.87;;;16.00;99.90;17.30;101274.00;;;;6275562;22;20167;-60
2023/05/12 09:40:02;;;;;;;8.47;6.00;;;15.80;99.90;17.00;101291.00;;;;6249536;22;20552;-60
2023/05/12 09:42:57;;;;;;;9.03;5.57;;;15.80;99.90;16.70;101288.00;;;;6275767;22;20171;-60
2023/05/12 09:45:23;;;;;;;9.43;2.20;;;15.60;99.90;17.60;101284.00;;;;6274516;22;20148;-60
2023/05/12 09:48:19;;;;;;;5.47;4.80;;;15.70;99.90;18.00;101296.00;;;;6276728;22;20468;-60
2023/05/12 09:51:31;;;;;;;1.20;1.17;;;16.00;99.90;18.40;101293.00;;;;6227190;22;20588;-60
2023/05/12 09:54:30;;;;;;;10.70;7.10;;;16.20;99.90;18.20;101298.00;;;;6252422;22;20160;-60
2023/05/12 09:57:21;;;;;;;4.73;4.27;;;16.50;99.90;18.40;101298.00;;;;6274371;22;20213;-60
2023/05/12 09:59:53;;;;;;;5.70;5.20;;;16.50;99.90;17.40;101298.00;;;;6255407;22;20200;-60
2023/05/12 10:02:41;;;;;;;3.77;3.07;;;16.10;99.90;18.30;101306.00;;;;6249573;22;20185;-60
2023/05/12 10:05:20;;;;;;;5.63;3.57;;;16.10;99.90;18.50;101311.00;;;;6274668;22;20160;-60
2023/05/12 10:08:10;;;;;;;6.23;4.90;;;16.30;99.90;17.90;101298.00;;;;6275403;22;20241;-60
2023/05/12 10:10:59;;;;;;;2.73;1.37;;;16.40;99.90;18.50;101307.00;;;;6275166;22;20149;-60
2023/05/12 10:14:02;;;;;;;1.93;1.83;;;16.30;99.90;18.20;101306.00;;;;6275874;22;20829;-60
2023/05/12 10:19:58;;;;;;;2.53;1.93;;;16.60;99.90;19.60;101317.00;;;;6275775;22;20163;-60
2023/05/12 10:33:54;;;;;;;1.87;1.70;;;16.70;99.90;19.20;101315.00;;;;5099120;28;20557;-60
2023/05/12 10:36:57;;;;;;;1.57;1.47;;;17.00;99.90;20.50;101337.00;;;;5068996;28;20206;-61
2023/05/12 10:39:59;;;;;;;1.43;1.27;;;17.40;99.90;20.20;101356.00;;;;5069077;28;20889;-61
2023/05/12 10:43:05;;;;;;;3.57;2.83;;;17.70;99.90;19.80;101359.00;;;;5052002;28;20242;-61
2023/05/12 10:46:21;;;;;;;2.17;1.97;;;17.80;99.90;21.70;101372.00;;;;5059668;28;20193;-60
2023/05/12 10:49:18;;;;;;;1.13;1.00;;;18.30;99.90;19.40;101357.00;;;;5069026;28;20182;-61
2023/05/12 10:51:47;;;;;;;6.63;3.60;;;17.90;99.90;18.10;101342.00;;;;5065867;28;20208;-60
2023/05/12 10:55:27;;;;;;;3.80;3.00;;;17.20;99.90;17.90;101336.00;;;;5044637;28;20678;-60
2023/05/12 10:57:53;;;;;;;1.77;1.67;;;16.60;99.90;18.60;101336.00;;;;5051692;28;20197;-60
2023/05/12 11:00:50;;;;;;;2.10;1.87;;;16.50;99.90;17.80;101333.00;;;;5053835;28;20191;-60
2023/05/12 11:03:34;;;;;;;1.63;1.53;;;16.50;99.90;19.80;101344.00;;;;5069919;28;20225;-60
2023/05/12 11:06:07;;;;;;;2.87;2.40;;;17.00;99.90;19.90;101359.00;;;;5068286;28;20184;-60
2023/05/12 11:08:53;;;;;;;0.10;0.10;;;17.70;99.90;21.80;101384.00;;;;5066254;28;20332;-61
2023/05/12 11:12:06;;;;;;;1.63;1.25;;;18.80;99.90;22.00;101408.00;;;;5062548;28;20193;-61
2023/05/12 11:14:54;;;;;;;2.50;2.30;;;19.10;99.90;20.30;101383.00;;;;5069227;28;20192;-60
2023/05/12 11:17:29;;;;;;;1.87;1.50;;;18.50;99.90;19.30;101383.00;;;;5067118;28;20276;-60
2023/05/12 11:20:24;;;;;;;2.20;2.10;;;17.80;99.90;19.10;101397.00;;;;5068841;28;20275;-60
2023/05/12 11:23:13;;;;;;;1.43;1.30;;;17.40;99.90;18.50;101371.00;;;;5062240;28;20234;-60
2023/05/12 11:28:25;;;;;;;1.60;1.50;;;16.60;99.90;18.30;101348.00;;;;5070311;28;20219;-60
2023/05/12 11:31:23;;;;;;;2.43;2.27;;;16.50;99.90;18.20;101342.00;;;;5067057;28;20194;-60
2023/05/12 11:34:19;;;;;;;1.70;1.10;;;16.50;99.90;19.30;101386.00;;;;5051386;28;20190;-60
2023/05/12 11:37:23;;;;;;;2.63;2.40;;;16.90;99.90;19.70;101394.00;;;;5046770;28;20700;-60
2023/05/12 11:39:59;;;;;;;1.83;1.73;;;17.40;99.90;20.10;101412.00;;;;5067344;28;20194;-60
2023/05/12 11:42:50;;;;;;;0.67;0.67;;;17.60;99.90;19.90;101406.00;;;;5068400;28;20257;-60
2023/05/12 11:45:46;;;;;;;1.17;1.17;;;17.50;99.90;19.70;101420.00;;;;5055631;28;20190;-60
2023/05/12 11:48:34;;;;;;;0.73;0.73;;;17.50;99.90;20.80;101430.00;;;;5043416;28;20194;-61
2023/05/12 11:51:08;;;;;;;0.60;0.60;;;17.90;99.90;21.20;101422.00;;;;5053924;28;20258;-61
2023/05/12 11:53:44;;;;;;;0.35;0.35;;;18.30;99.90;22.00;101433.00;;;;5038051;28;20540;-60
2023/05/12 11:56:53;;;;;;;0.75;0.75;;;18.80;99.90;22.00;101431.00;;;;5036449;28;20197;-61
2023/05/12 11:59:28;;;;;;;0.95;0.77;;;19.20;99.90;21.40;101435.00;;;;5043851;28;20166;-60
2023/05/12 12:02:03;;;;;;;0.20;0.20;;;19.10;99.90;21.40;101404.00;;;;5055323;28;20643;-65
2023/05/12 12:04:41;;;;;;;0.50;0.50;;;18.90;99.90;22.00;101449.00;;;;5037660;28;20189;-60
2023/05/12 12:07:53;;;;;;;1.02;1.02;;;19.20;99.90;22.00;101450.00;;;;5054833;28;20582;-60
2023/05/12 12:10:27;;;;;;;2.05;1.00;;;19.30;99.90;21.60;101445.00;;;;5034361;28;20205;-61
2023/05/12 12:12:53;;;;;;;1.60;1.50;;;19.40;99.90;21.40;101477.00;;;;5037196;28;20817;-60
2023/05/12 12:15:39;;;;;;;0.55;0.55;;;19.50;99.90;23.10;101479.00;;;;5055032;28;20218;-61
2023/05/12 12:18:22;;;;;;;1.35;0.73;;;19.80;99.90;22.10;101476.00;;;;5036068;28;20224;-61
2023/05/12 12:21:26;;;;;;;0.90;0.40;;;19.60;99.90;22.70;101483.00;;;;5013649;28;20194;-61
2023/05/12 12:23:57;;;;;;;4.50;1.23;;;19.60;99.90;22.00;101479.00;;;;5045336;28;20190;-61
2023/05/12 12:26:23;;;;;;;0.52;0.52;;;19.40;99.90;22.20;101486.00;;;;5054232;28;20274;-61
2023/05/12 12:28:49;;;;;;;0.70;0.70;;;19.50;99.90;22.80;101490.00;;;;5052214;28;20269;-61
2023/05/12 12:31:15;;;;;;;0.85;0.73;;;19.50;99.90;23.40;101501.00;;;;5054541;28;20656;-61
2023/05/12 12:33:42;;;;;;;0.20;0.20;;;19.80;99.90;22.80;101512.00;;;;5020473;28;20178;-61
2023/05/12 12:36:10;;;;;;;0.10;0.10;;;19.80;99.90;22.90;101491.00;;;;5053355;28;20182;-61
2023/05/12 12:39:22;;;;;;;1.98;1.08;;;19.50;99.90;22.40;101508.00;;;;5054917;28;20206;-61
2023/05/12 12:42:06;;;;;;;0.57;0.57;;;19.50;99.90;22.70;101510.00;;;;5036745;28;20193;-61
2023/05/12 12:44:55;;;;;;;0.73;0.73;;;19.70;99.90;22.80;101512.00;;;;5034322;28;20252;-61
2023/05/12 12:47:58;;;;;;;0.22;0.22;;;19.80;99.90;23.20;101534.00;;;;5048603;28;20191;-61
2023/05/12 12:50:49;;;;;;;0.85;0.85;;;19.90;99.90;22.10;101541.00;;;;5054758;28;20601;-61
2023/05/12 12:53:50;;;;;;;1.38;1.27;;;19.70;99.90;22.40;101523.00;;;;5045286;28;20664;-60
2023/05/12 12:56:26;;;;;;;0.47;0.47;;;19.50;99.90;23.90;101537.00;;;;5042190;28;20182;-61
2023/05/12 12:59:10;;;;;;;1.20;0.85;;;20.10;99.90;23.50;101554.00;;;;5042028;28;20175;-61
2023/05/12 13:01:36;;;;;;;0.32;0.32;;;20.40;99.90;23.20;101564.00;;;;5049074;28;20555;-61
2023/05/12 13:04:30;;;;;;;0.75;0.40;;;20.30;99.90;23.60;101541.00;;;;5054257;28;20179;-60
2023/05/12 13:07:21;;;;;;;0.68;0.68;;;20.00;99.90;23.60;101549.00;;;;5036487;28;20177;-61
2023/05/12 13:10:13;;;;;;;0.28;0.28;;;20.10;99.90;22.80;101564.00;;;;5038099;28;20183;-61
2023/05/12 13:12:47;;;;;;;0.63;0.63;;;20.00;99.90;22.50;101535.00;;;;5054248;28;20210;-61
2023/05/12 13:15:24;;;;;;;0.43;0.43;;;19.70;99.90;22.90;101536.00;;;;5020261;28;20656;-61
2023/05/12 13:18:13;;;;;;;1.35;1.17;;;19.60;99.90;22.40;101554.00;;;;5054329;28;20174;-61
2023/05/12 13:21:22;;;;;;;0.30;0.30;;;19.90;99.90;23.10;101541.00;;;;5036489;28;20273;-61
2023/05/12 13:24:17;;;;;;;0.30;0.30;;;20.00;99.90;24.00;101553.00;;;;5053950;28;20178;-61
2023/05/12 13:27:23;;;;;;;0.45;0.40;;;20.30;99.90;23.10;101553.00;;;;5043167;28;20218;-61
2023/05/12 13:30:10;;;;;;;0.10;0.10;;;20.10;99.90;24.20;101563.00;;;;5036170;28;20256;-61
2023/05/12 13:32:51;;;;;;;0.32;0.32;;;20.30;99.90;23.90;101544.00;;;;5054022;28;20267;-61
2023/05/12 13:35:37;;;;;;;2.33;1.20;;;20.30;99.90;24.00;101575.00;;;;5048176;28;20186;-61
2023/05/12 13:38:25;;;;;;;0.22;0.22;;;20.50;99.90;24.30;101587.00;;;;5052200;28;20236;-61
2023/05/12 13:41:13;;;;;;;0.10;0.10;;;20.70;99.90;24.60;101589.00;;;;5041997;28;20179;-61
2023/05/12 13:44:05;;;;;;;1.35;1.25;;;20.80;99.90;24.00;101601.00;;;;5035581;28;20273;-61
2023/05/12 13:47:09;;;;;;;0.30;0.30;;;20.60;99.90;24.00;101601.00;;;;5035679;28;20196;-61
2023/05/12 13:50:02;;;;;;;0.82;0.82;;;20.40;99.90;23.30;101606.00;;;;5052037;28;20178;-61
2023/05/12 13:53:30;;;;;;;0.50;0.50;;;20.30;99.90;23.30;101583.00;;;;5053157;28;20271;-61
2023/05/12 13:56:23;;;;;;;1.55;1.45;;;20.00;99.90;23.20;101582.00;;;;5053400;28;20188;-61
2023/05/12 13:59:29;;;;;;;0.20;0.20;;;20.00;99.90;22.90;101553.00;;;;5053167;28;20193;-61
2023/05/12 14:02:17;;;;;;;0.10;0.10;;;19.70;99.90;23.50;101566.00;;;;5030876;28;20334;-61
2023/05/12 14:05:06;;;;;;;0.10;0.10;;;20.10;99.90;24.20;101570.00;;;;5051914;28;20261;-61
2023/05/12 14:08:12;;;;;;;0.10;0.10;;;20.40;99.90;23.90;101581.00;;;;5052931;28;20268;-61
2023/05/12 14:11:13;;;;;;;0.55;0.55;;;20.40;99.90;24.10;101595.00;;;;5051083;28;20182;-61
2023/05/12 14:13:59;;;;;;;0.30;0.30;;;20.60;99.90;23.90;101608.00;;;;5052995;28;20173;-61
2023/05/12 14:17:08;;;;;;;0.10;0.10;;;20.30;99.90;24.00;101587.00;;;;5043850;28;20237;-61
2023/05/12 14:20:18;;;;;;;1.13;1.10;;;20.20;99.90;24.80;101600.00;;;;5040789;28;20182;-61
2023/05/12 14:22:55;;;;;;;0.50;0.50;;;20.70;99.90;24.20;101601.00;;;;5051771;28;20186;-61
2023/05/12 14:25:22;;;;;;;0.10;0.10;;;20.50;99.90;24.90;101602.00;;;;5046117;28;20269;-61
2023/05/12 14:27:48;;;;;;;0.10;0.10;;;20.60;99.90;23.90;101620.00;;;;5052849;28;20725;-61
2023/05/12 14:30:58;;;;;;;0.20;0.20;;;20.40;99.90;24.00;101626.00;;;;5053007;28;20210;-61
2023/05/12 14:33:44;;;;;;;0.35;0.35;;;20.50;99.90;23.50;101636.00;;;;5035824;28;20232;-61
2023/05/12 14:36:34;;;;;;;0.30;0.30;;;20.30;99.90;23.40;101604.00;;;;5051504;28;20190;-61
2023/05/12 14:39:20;;;;;;;0.10;0.10;;;20.00;99.90;23.40;101619.00;;;;5052858;28;20178;-61
2023/05/12 14:41:46;;;;;;;0.50;0.50;;;20.10;99.90;23.60;101621.00;;;;5047901;28;20181;-61
2023/05/12 14:44:19;;;;;;;0.98;0.90;;;20.00;99.90;23.00;101625.00;;;;5052643;28;20178;-61
2023/05/12 14:46:54;;;;;;;0.75;0.63;;;19.90;99.90;23.80;101601.00;;;;5053341;28;20182;-61
2023/05/12 14:50:04;;;;;;;0.15;0.15;;;20.10;99.90;23.10;101617.00;;;;5051307;28;20182;-61
2023/05/12 14:52:39;;;;;;;0.38;0.35;;;19.80;99.90;24.20;101621.00;;;;5050930;28;20214;-61
2023/05/12 14:55:12;;;;;;;0.17;0.17;;;20.10;99.90;24.00;101618.00;;;;5052487;28;20550;-61
2023/05/12 14:57:48;;;;;;;0.32;0.32;;;20.20;99.90;23.60;101651.00;;;;5040652;28;20217;-61
2023/05/12 15:00:35;;;;;;;0.20;0.20;;;20.40;99.90;24.00;101651.00;;;;5035394;28;20209;-61
2023/05/12 15:03:21;;;;;;;1.13;0.57;;;20.30;99.90;24.70;101649.00;;;;5044260;28;20182;-61
2023/05/12 15:06:10;;;;;;;1.95;1.45;;;20.40;99.90;24.50;101656.00;;;;5049569;28;20203;-61
2023/05/12 15:09:13;;;;;;;0.20;0.20;;;20.70;99.90;23.60;101665.00;;;;5036247;28;20535;-61
2023/05/12 15:12:14;;;;;;;0.10;0.10;;;20.50;99.90;25.00;101642.00;;;;5017160;28;20247;-61
2023/05/12 15:14:45;;;;;;;0.10;0.10;;;20.60;99.90;24.90;101649.00;;;;5050961;28;20196;-61
2023/05/12 15:17:33;;;;;;;0.10;0.10;;;20.60;99.90;25.00;101660.00;;;;5052415;28;20220;-61
2023/05/12 15:20:22;;;;;;;0.10;0.10;;;20.80;99.90;25.70;101648.00;;;;5051625;28;20189;-61
2023/05/12 15:23:23;;;;;;;0.45;0.45;;;21.00;99.90;25.60;101658.00;;;;5030696;28;20232;-61
2023/05/12 15:26:14;;;;;;;0.10;0.10;;;21.20;99.90;25.90;101648.00;;;;5053141;28;20193;-61
2023/05/12 15:29:17;;;;;;;0.10;0.10;;;21.40;99.90;26.30;101640.00;;;;5038943;28;20205;-61
2023/05/12 15:31:54;;;;;;;0.10;0.10;;;21.90;99.90;26.40;101644.00;;;;5046008;28;20214;-61
2023/05/12 15:35:02;;;;;;;0.10;0.10;;;21.90;99.90;24.20;101679.00;;;;5056084;28;20625;-61
2023/05/12 15:38:05;;;;;;;0.10;0.10;;;21.00;99.90;24.30;101696.00;;;;5053932;28;20200;-61
2023/05/12 15:41:07;;;;;;;0.10;0.10;;;21.10;99.90;23.50;101706.00;;;;5046780;28;20177;-60
2023/05/12 15:43:59;;;;;;;0.65;0.65;;;20.40;99.90;23.20;101710.00;;;;5038437;28;20200;-61
2023/05/12 15:46:48;;;;;;;2.45;1.75;;;20.60;99.90;21.80;101714.00;;;;5037905;28;20540;-60
2023/05/12 15:49:33;;;;;;;0.35;0.35;;;20.00;99.90;23.50;101707.00;;;;5038085;28;20236;-61
2023/05/12 15:52:20;;;;;;;0.60;0.60;;;20.10;99.90;24.00;101693.00;;;;5046958;28;20233;-61
2023/05/12 15:55:25;;;;;;;1.15;0.82;;;20.30;99.90;23.90;101697.00;;;;5034155;28;20611;-61
2023/05/12 15:58:08;;;;;;;1.67;1.25;;;20.40;99.90;23.30;101695.00;;;;5033096;28;20193;-60
2023/05/12 16:01:00;;;;;;;3.83;1.30;;;20.20;99.90;22.80;101690.00;;;;5054684;28;20205;-61
2023/05/12 16:04:03;;;;;;;0.20;0.20;;;20.20;99.90;23.50;101685.00;;;;5047927;28;20201;-61
2023/05/12 16:07:12;;;;;;;0.68;0.68;;;20.40;99.90;22.80;101703.00;;;;5019272;28;20189;-61
2023/05/12 16:10:19;;;;;;;0.90;0.90;;;20.50;99.90;23.40;101657.00;;;;5026241;28;20185;-61
2023/05/12 16:13:20;;;;;;;4.03;1.75;;;20.60;99.90;22.70;101703.00;;;;5055055;28;20579;-60
2023/05/12 16:16:27;;;;;;;0.20;0.20;;;20.50;99.90;24.20;101684.00;;;;5055038;28;20198;-61
2023/05/12 16:19:33;;;;;;;0.43;0.43;;;20.60;99.90;24.50;101684.00;;;;5055459;28;20264;-61
2023/05/12 16:22:50;;;;;;;0.52;0.52;;;20.80;99.90;23.20;101713.00;;;;5035160;28;20652;-61
2023/05/12 16:25:58;;;;;;;1.13;1.08;;;20.60;99.90;22.20;101707.00;;;;5047648;28;20190;-60
2023/05/12 16:28:59;;;;;;;1.08;1.05;;;20.10;99.90;22.90;101714.00;;;;5050716;28;20186;-60
2023/05/12 16:31:52;;;;;;;0.38;0.25;;;19.80;99.90;23.60;101687.00;;;;5031579;28;20734;-61
2023/05/12 16:34:38;;;;;;;1.38;1.27;;;20.10;99.90;22.10;101720.00;;;;5055150;28;20706;-61
2023/05/12 16:37:40;;;;;;;0.75;0.57;;;19.80;99.90;22.50;101718.00;;;;5054930;28;20236;-60
2023/05/12 16:40:28;;;;;;;2.55;0.60;;;19.70;99.90;22.40;101722.00;;;;5046875;28;20662;-60
2023/05/12 16:43:21;;;;;;;0.52;0.52;;;19.70;99.90;23.30;101704.00;;;;5053389;28;20641;-61
2023/05/12 16:46:09;;;;;;;0.30;0.30;;;19.90;99.90;23.40;101711.00;;;;5054672;28;20190;-61
2023/05/12 16:49:03;;;;;;;0.20;0.20;;;20.00;99.90;23.60;101682.00;;;;5046387;28;20289;-61
2023/05/12 16:52:00;;;;;;;0.30;0.30;;;20.00;99.90;23.70;101708.00;;;;5053536;28;20346;-61
2023/05/12 16:54:54;;;;;;;0.20;0.20;;;20.20;99.90;24.20;101705.00;;;;5051585;28;20178;-60
2023/05/12 16:58:03;;;;;;;0.20;0.20;;;20.40;99.90;24.20;101714.00;;;;5024136;28;20199;-61
2023/05/12 17:00:56;;;;;;;0.10;0.10;;;20.20;99.90;24.00;101723.00;;;;5033553;28;20215;-61
2023/05/12 17:04:02;;;;;;;0.10;0.10;;;20.40;99.90;24.40;101716.00;;;;5047619;28;20197;-61
2023/05/12 17:07:05;;;;;;;0.10;0.10;;;20.40;99.90;24.30;101693.00;;;;5030251;28;20186;-61
2023/05/12 17:09:54;;;;;;;0.57;0.57;;;20.30;99.90;24.70;101716.00;;;;5042923;28;20272;-61
2023/05/12 17:12:57;;;;;;;0.10;0.10;;;20.60;99.90;24.80;101722.00;;;;5032162;28;20680;-61
2023/05/12 17:15:50;;;;;;;0.10;0.10;;;20.70;99.90;25.40;101718.00;;;;5031444;28;20197;-61
2023/05/12 17:18:51;;;;;;;0.40;0.40;;;20.80;99.90;25.40;101710.00;;;;5045908;28;20230;-61
2023/05/12 17:21:20;;;;;;;0.57;0.57;;;21.00;99.90;25.50;101718.00;;;;5050815;28;20586;-61
2023/05/12 17:24:11;;;;;;;0.50;0.50;;;21.10;99.90;25.80;101700.00;;;;5036136;28;20218;-61
2023/05/12 17:26:56;;;;;;;0.20;0.20;;;21.30;99.90;25.10;101732.00;;;;5032129;28;20218;-61
2023/05/12 17:29:44;;;;;;;0.10;0.10;;;21.10;99.90;24.70;101733.00;;;;5053585;28;20186;-61
2023/05/12 17:32:32;;;;;;;0.10;0.10;;;20.90;99.90;24.10;101748.00;;;;5047002;28;20218;-61
2023/05/12 17:35:26;;;;;;;1.13;1.05;;;20.70;99.90;23.90;101765.00;;;;5045401;28;20182;-61
2023/05/12 17:38:30;;;;;;;0.20;0.20;;;20.50;99.90;23.90;101769.00;;;;5032269;28;20198;-61
2023/05/12 17:41:18;;;;;;;0.10;0.10;;;20.20;99.90;23.80;101775.00;;;;5053184;28;20181;-61
2023/05/12 17:47:33;;;;;;;0.63;0.63;;;20.30;99.90;23.80;101780.00;;;;5035925;28;20273;-61
2023/05/12 17:50:32;;;;;;;1.05;0.95;;;20.10;99.90;23.40;101796.00;;;;5048787;28;20190;-61
2023/05/12 17:53:15;;;;;;;0.55;0.50;;;20.00;99.90;22.80;101793.00;;;;5051492;28;20218;-61
2023/05/12 17:55:43;;;;;;;2.35;1.38;;;20.00;99.90;22.60;101768.00;;;;5035245;28;20190;-61
2023/05/12 17:58:31;;;;;;;0.20;0.20;;;19.80;99.90;22.60;101790.00;;;;5052988;28;20653;-61
2023/05/12 18:01:32;;;;;;;0.47;0.47;;;19.70;99.90;22.90;101765.00;;;;5051949;28;20645;-61
2023/05/12 18:04:18;;;;;;;0.10;0.10;;;19.80;99.90;23.00;101782.00;;;;5053356;28;20194;-61
2023/05/12 18:07:05;;;;;;;0.20;0.20;;;19.90;99.90;23.10;101784.00;;;;5039809;28;20180;-61
2023/05/12 18:09:32;;;;;;;0.10;0.10;;;19.80;99.90;23.20;101797.00;;;;5031807;28;20661;-61
2023/05/12 18:12:06;;;;;;;0.20;0.20;;;19.90;99.90;22.80;101796.00;;;;5051442;28;20198;-60
2023/05/12 18:14:58;;;;;;;2.60;0.57;;;19.70;99.90;23.00;101797.00;;;;5053147;28;20187;-61
2023/05/12 18:17:48;;;;;;;0.90;0.90;;;19.60;99.90;23.20;101800.00;;;;5052973;28;20225;-60
2023/05/12 18:20:34;;;;;;;0.43;0.32;;;19.70;99.90;23.40;101800.00;;;;5052719;28;20213;-61
2023/05/12 18:23:24;;;;;;;0.80;0.80;;;19.80;99.90;22.30;101790.00;;;;5052896;28;20182;-61
2023/05/12 18:26:21;;;;;;;1.15;1.05;;;19.60;99.90;22.10;101812.00;;;;5036873;28;20193;-60
2023/05/12 18:29:14;;;;;;;1.75;1.65;;;19.40;99.90;21.10;101806.00;;;;5048789;28;20610;-60
2023/05/12 18:31:58;;;;;;;10.90;1.90;;;19.10;99.90;20.90;101779.00;;;;5030369;28;20756;-60
2023/05/12 18:34:52;;;;;;;0.90;0.80;;;18.90;99.90;20.60;101807.00;;;;5035134;28;20185;-60
2023/05/12 18:37:21;;;;;;;1.85;1.23;;;18.90;99.90;21.20;101792.00;;;;5021859;28;20226;-60
2023/05/12 18:40:31;;;;;;;1.23;1.20;;;18.80;99.90;20.50;101805.00;;;;5052864;28;20185;-60
2023/05/12 18:43:04;;;;;;;0.25;0.25;;;18.60;99.90;21.50;101777.00;;;;5048650;28;20191;-60
2023/05/12 18:45:38;;;;;;;1.27;1.05;;;18.60;99.90;20.30;101800.00;;;;5049494;28;20201;-60
2023/05/12 18:48:42;;;;;;;2.13;1.97;;;18.50;99.90;21.00;101795.00;;;;5035307;28;20190;-64
2023/05/12 18:51:13;;;;;;;0.10;0.10;;;18.40;99.90;21.50;101771.00;;;;5050046;28;20190;-60
2023/05/12 18:53:59;;;;;;;0.60;0.60;;;18.60;99.90;20.60;101797.00;;;;5054226;28;20190;-60
2023/05/12 18:57:05;;;;;;;0.20;0.20;;;18.50;99.90;20.60;101809.00;;;;5046926;28;20221;-60
2023/05/12 18:59:51;;;;;;;0.77;0.77;;;18.50;99.90;21.40;101807.00;;;;5025712;28;20556;-60
2023/05/12 19:02:46;;;;;;;0.53;0.40;;;18.50;99.90;21.70;101808.00;;;;5035171;28;20663;-60
2023/05/12 19:05:32;;;;;;;0.85;0.85;;;18.60;99.90;21.60;101820.00;;;;5031749;28;20201;-60
2023/05/12 19:08:44;;;;;;;0.50;0.50;;;18.60;99.90;21.00;101799.00;;;;5038635;28;20553;-60
2023/05/12 19:11:32;;;;;;;0.30;0.30;;;18.40;99.90;21.40;101830.00;;;;5043820;28;20209;-60
2023/05/12 19:14:39;;;;;;;0.20;0.20;;;18.50;99.90;21.40;101829.00;;;;5034558;28;20579;-60
2023/05/12 19:17:27;;;;;;;0.37;0.37;;;18.30;99.90;21.50;101808.00;;;;5043028;28;20268;-60
2023/05/12 19:20:31;;;;;;;0.97;0.97;;;18.40;99.90;21.20;101844.00;;;;5040077;28;20212;-60
2023/05/12 19:23:37;;;;;;;0.20;0.20;;;18.30;99.90;21.30;101845.00;;;;5040268;28;20242;-60
2023/05/12 19:26:35;;;;;;;0.20;0.20;;;18.30;99.90;21.00;101847.00;;;;5051903;28;20201;-60
2023/05/12 19:29:28;;;;;;;0.30;0.30;;;18.20;99.90;21.00;101856.00;;;;5040935;28;20181;-60
2023/05/12 19:31:54;;;;;;;0.40;0.40;;;18.10;99.90;20.60;101846.00;;;;5049901;28;20204;-60
2023/05/12 19:34:20;;;;;;;0.10;0.10;;;17.90;99.90;21.10;101834.00;;;;5056237;28;20239;-61
2023/05/12 19:36:57;;;;;;;1.03;1.03;;;17.90;99.90;21.70;101832.00;;;;5038308;28;20243;-60
2023/05/12 19:39:50;;;;;;;0.10;0.10;;;18.00;99.90;21.60;101848.00;;;;5039070;28;20737;-60
2023/05/12 19:42:42;;;;;;;0.10;0.10;;;18.00;99.90;22.00;101846.00;;;;5042141;28;20197;-61
2023/05/12 19:45:36;;;;;;;2.60;2.43;;;18.20;99.90;23.20;101854.00;;;;5049312;28;20237;-61
2023/05/12 19:48:02;;;;;;;0.10;0.10;;;18.70;99.90;22.70;101869.00;;;;5054871;28;20186;-61
2023/05/12 19:51:06;;;;;;;0.10;0.10;;;18.70;99.90;22.80;101871.00;;;;5055552;28;20188;-61
2023/05/12 19:53:47;;;;;;;0.20;0.20;;;18.90;99.90;22.40;101877.00;;;;5052021;28;20216;-61